sensor_id;sensor_type;location;lat;lon;timestamp;P1;durP1;ratioP1;P2;durP2;ratioP2
34296;SDS011;20564;42.902;25.336;2022-11-25T00:00:44;1.05;;;0.55;;
34296;SDS011;20564;42.902;25.336;2022-11-25T00:03:15;0.40;;;0.10;;
34296;SDS011;20564;42.902;25.336;2022-11-25T00:08:38;1.25;;;0.43;;
34296;SDS011;20564;42.902;25.336;2022-11-25T00:11:07;0.20;;;0.20;;
34296;SDS011;20564;42.902;25.336;2022-11-25T00:13:41;0.30;;;0.20;;
34296;SDS011;20564;42.902;25.336;2022-11-25T00:16:14;0.38;;;0.22;;
34296;SDS011;20564;42.902;25.336;2022-11-25T00:18:47;0.65;;;0.35;;
34296;SDS011;20564;42.902;25.336;2022-11-25T00:21:22;0.82;;;0.43;;
34296;SDS011;20564;42.902;25.336;2022-11-25T00:23:55;0.20;;;0.20;;
34296;SDS011;20564;42.902;25.336;2022-11-25T00:26:24;2.25;;;0.73;;
34296;SDS011;20564;42.902;25.336;2022-11-25T00:28:53;0.65;;;0.38;;
34296;SDS011;20564;42.902;25.336;2022-11-25T00:31:24;1.27;;;0.75;;
34296;SDS011;20564;42.902;25.336;2022-11-25T00:33:54;1.55;;;0.77;;
34296;SDS011;20564;42.902;25.336;2022-11-25T00:36:23;1.42;;;0.55;;
34296;SDS011;20564;42.902;25.336;2022-11-25T00:38:57;0.82;;;0.45;;
34296;SDS011;20564;42.902;25.336;2022-11-25T00:41:27;1.13;;;0.57;;
34296;SDS011;20564;42.902;25.336;2022-11-25T00:44:14;0.25;;;0.25;;
34296;SDS011;20564;42.902;25.336;2022-11-25T00:47:08;0.50;;;0.50;;
34296;SDS011;20564;42.902;25.336;2022-11-25T00:49:37;0.63;;;0.20;;
34296;SDS011;20564;42.902;25.336;2022-11-25T00:52:06;1.10;;;0.55;;
34296;SDS011;20564;42.902;25.336;2022-11-25T00:54:34;1.02;;;0.65;;
34296;SDS011;20564;42.902;25.336;2022-11-25T00:57:01;1.27;;;0.75;;
34296;SDS011;20564;42.902;25.336;2022-11-25T00:59:29;0.70;;;0.40;;
34296;SDS011;20564;42.902;25.336;2022-11-25T01:01:56;1.15;;;0.47;;
34296;SDS011;20564;42.902;25.336;2022-11-25T01:04:24;1.13;;;0.85;;
34296;SDS011;20564;42.902;25.336;2022-11-25T01:06:51;1.45;;;0.80;;
34296;SDS011;20564;42.902;25.336;2022-11-25T01:09:19;0.82;;;0.22;;
34296;SDS011;20564;42.902;25.336;2022-11-25T01:11:48;0.43;;;0.40;;
34296;SDS011;20564;42.902;25.336;2022-11-25T01:14:16;0.50;;;0.40;;
34296;SDS011;20564;42.902;25.336;2022-11-25T01:16:44;0.20;;;0.20;;
34296;SDS011;20564;42.902;25.336;2022-11-25T01:19:12;1.27;;;0.57;;
34296;SDS011;20564;42.902;25.336;2022-11-25T01:21:39;1.05;;;0.47;;
34296;SDS011;20564;42.902;25.336;2022-11-25T01:24:07;0.20;;;0.20;;
34296;SDS011;20564;42.902;25.336;2022-11-25T01:26:34;0.17;;;0.17;;
34296;SDS011;20564;42.902;25.336;2022-11-25T01:29:05;9.57;;;0.50;;
34296;SDS011;20564;42.902;25.336;2022-11-25T01:31:37;0.40;;;0.30;;
34296;SDS011;20564;42.902;25.336;2022-11-25T01:34:18;1.77;;;0.52;;
34296;SDS011;20564;42.902;25.336;2022-11-25T01:36:50;0.90;;;0.40;;
34296;SDS011;20564;42.902;25.336;2022-11-25T01:39:26;0.63;;;0.50;;
34296;SDS011;20564;42.902;25.336;2022-11-25T01:41:58;1.20;;;0.88;;
34296;SDS011;20564;42.902;25.336;2022-11-25T01:44:34;0.22;;;0.22;;
34296;SDS011;20564;42.902;25.336;2022-11-25T01:47:20;3.53;;;1.33;;
34296;SDS011;20564;42.902;25.336;2022-11-25T01:49:55;0.65;;;0.40;;
34296;SDS011;20564;42.902;25.336;2022-11-25T01:52:38;0.88;;;0.60;;
34296;SDS011;20564;42.902;25.336;2022-11-25T01:55:14;1.65;;;1.00;;
34296;SDS011;20564;42.902;25.336;2022-11-25T01:57:57;0.30;;;0.30;;
34296;SDS011;20564;42.902;25.336;2022-11-25T02:00:29;0.82;;;0.40;;
34296;SDS011;20564;42.902;25.336;2022-11-25T02:03:00;0.93;;;0.43;;
34296;SDS011;20564;42.902;25.336;2022-11-25T02:08:30;0.15;;;0.15;;
34296;SDS011;20564;42.902;25.336;2022-11-25T02:10:59;1.75;;;0.73;;
34296;SDS011;20564;42.902;25.336;2022-11-25T02:13:31;0.13;;;0.13;;
34296;SDS011;20564;42.902;25.336;2022-11-25T02:15:59;0.75;;;0.52;;
34296;SDS011;20564;42.902;25.336;2022-11-25T02:18:28;0.98;;;0.73;;
34296;SDS011;20564;42.902;25.336;2022-11-25T02:20:58;0.10;;;0.10;;
34296;SDS011;20564;42.902;25.336;2022-11-25T02:26:11;0.25;;;0.25;;
34296;SDS011;20564;42.902;25.336;2022-11-25T02:28:49;0.35;;;0.30;;
34296;SDS011;20564;42.902;25.336;2022-11-25T02:33:48;0.00;;;0.00;;
34296;SDS011;20564;42.902;25.336;2022-11-25T02:36:18;0.70;;;0.45;;
34296;SDS011;20564;42.902;25.336;2022-11-25T02:38:56;0.25;;;0.25;;
34296;SDS011;20564;42.902;25.336;2022-11-25T02:41:46;0.10;;;0.10;;
34296;SDS011;20564;42.902;25.336;2022-11-25T02:44:20;0.30;;;0.20;;
34296;SDS011;20564;42.902;25.336;2022-11-25T02:46:51;0.43;;;0.30;;
34296;SDS011;20564;42.902;25.336;2022-11-25T02:49:21;0.65;;;0.38;;
34296;SDS011;20564;42.902;25.336;2022-11-25T02:51:48;0.38;;;0.38;;
34296;SDS011;20564;42.902;25.336;2022-11-25T02:56:47;0.47;;;0.28;;
34296;SDS011;20564;42.902;25.336;2022-11-25T02:59:18;0.32;;;0.30;;
34296;SDS011;20564;42.902;25.336;2022-11-25T03:01:46;0.17;;;0.17;;
34296;SDS011;20564;42.902;25.336;2022-11-25T03:04:17;0.43;;;0.43;;
34296;SDS011;20564;42.902;25.336;2022-11-25T03:06:47;0.13;;;0.13;;
34296;SDS011;20564;42.902;25.336;2022-11-25T03:09:14;0.88;;;0.38;;
34296;SDS011;20564;42.902;25.336;2022-11-25T03:11:44;0.05;;;0.05;;
34296;SDS011;20564;42.902;25.336;2022-11-25T03:14:34;0.25;;;0.22;;
34296;SDS011;20564;42.902;25.336;2022-11-25T03:17:06;1.05;;;0.40;;
34296;SDS011;20564;42.902;25.336;2022-11-25T03:19:37;1.23;;;0.52;;
34296;SDS011;20564;42.902;25.336;2022-11-25T03:22:08;0.30;;;0.30;;
34296;SDS011;20564;42.902;25.336;2022-11-25T03:24:41;0.65;;;0.52;;
34296;SDS011;20564;42.902;25.336;2022-11-25T03:27:13;1.42;;;0.25;;
34296;SDS011;20564;42.902;25.336;2022-11-25T03:29:40;1.00;;;0.50;;
34296;SDS011;20564;42.902;25.336;2022-11-25T03:32:07;0.60;;;0.40;;
34296;SDS011;20564;42.902;25.336;2022-11-25T03:34:38;0.17;;;0.17;;
34296;SDS011;20564;42.902;25.336;2022-11-25T03:37:08;1.00;;;0.43;;
34296;SDS011;20564;42.902;25.336;2022-11-25T03:39:36;0.40;;;0.30;;
34296;SDS011;20564;42.902;25.336;2022-11-25T03:42:03;1.00;;;0.40;;
34296;SDS011;20564;42.902;25.336;2022-11-25T03:44:30;0.93;;;0.43;;
34296;SDS011;20564;42.902;25.336;2022-11-25T03:46:57;0.90;;;0.70;;
34296;SDS011;20564;42.902;25.336;2022-11-25T03:49:25;0.90;;;0.45;;
34296;SDS011;20564;42.902;25.336;2022-11-25T03:51:55;0.38;;;0.30;;
34296;SDS011;20564;42.902;25.336;2022-11-25T03:54:22;0.75;;;0.63;;
34296;SDS011;20564;42.902;25.336;2022-11-25T03:59:17;0.30;;;0.30;;
34296;SDS011;20564;42.902;25.336;2022-11-25T04:01:44;1.02;;;0.47;;
34296;SDS011;20564;42.902;25.336;2022-11-25T04:04:12;0.22;;;0.22;;
34296;SDS011;20564;42.902;25.336;2022-11-25T04:06:48;0.80;;;0.43;;
34296;SDS011;20564;42.902;25.336;2022-11-25T04:09:17;0.47;;;0.47;;
34296;SDS011;20564;42.902;25.336;2022-11-25T04:12:09;1.17;;;0.50;;
34296;SDS011;20564;42.902;25.336;2022-11-25T04:15:46;0.82;;;0.30;;
34296;SDS011;20564;42.902;25.336;2022-11-25T04:18:34;0.30;;;0.25;;
34296;SDS011;20564;42.902;25.336;2022-11-25T04:21:24;0.10;;;0.10;;
34296;SDS011;20564;42.902;25.336;2022-11-25T04:24:26;1.80;;;1.00;;
34296;SDS011;20564;42.902;25.336;2022-11-25T04:33:03;6.20;;;3.58;;
34296;SDS011;20564;42.902;25.336;2022-11-25T04:36:04;4.40;;;3.30;;
34296;SDS011;20564;42.902;25.336;2022-11-25T04:39:10;4.15;;;2.53;;
34296;SDS011;20564;42.902;25.336;2022-11-25T04:42:02;1.88;;;1.25;;
34296;SDS011;20564;42.902;25.336;2022-11-25T04:45:05;1.10;;;0.70;;
34296;SDS011;20564;42.902;25.336;2022-11-25T04:47:56;1.73;;;0.60;;
34296;SDS011;20564;42.902;25.336;2022-11-25T04:50:29;0.57;;;0.40;;
34296;SDS011;20564;42.902;25.336;2022-11-25T04:52:59;0.82;;;0.50;;
34296;SDS011;20564;42.902;25.336;2022-11-25T04:55:34;1.00;;;0.50;;
34296;SDS011;20564;42.902;25.336;2022-11-25T04:58:52;0.85;;;0.50;;
34296;SDS011;20564;42.902;25.336;2022-11-25T05:01:51;0.32;;;0.32;;
34296;SDS011;20564;42.902;25.336;2022-11-25T05:04:53;1.08;;;0.65;;
34296;SDS011;20564;42.902;25.336;2022-11-25T05:07:22;0.85;;;0.65;;
34296;SDS011;20564;42.902;25.336;2022-11-25T05:09:50;1.35;;;0.82;;
34296;SDS011;20564;42.902;25.336;2022-11-25T05:12:23;2.75;;;1.38;;
34296;SDS011;20564;42.902;25.336;2022-11-25T05:15:34;2.47;;;1.55;;
34296;SDS011;20564;42.902;25.336;2022-11-25T05:18:18;3.78;;;0.93;;
34296;SDS011;20564;42.902;25.336;2022-11-25T05:20:47;0.68;;;0.68;;
34296;SDS011;20564;42.902;25.336;2022-11-25T05:23:14;0.63;;;0.50;;
34296;SDS011;20564;42.902;25.336;2022-11-25T05:25:42;2.13;;;0.93;;
34296;SDS011;20564;42.902;25.336;2022-11-25T05:28:09;0.93;;;0.40;;
34296;SDS011;20564;42.902;25.336;2022-11-25T05:30:45;0.50;;;0.50;;
34296;SDS011;20564;42.902;25.336;2022-11-25T05:33:13;0.90;;;0.65;;
34296;SDS011;20564;42.902;25.336;2022-11-25T05:35:40;1.27;;;0.75;;
34296;SDS011;20564;42.902;25.336;2022-11-25T05:38:07;0.73;;;0.70;;
34296;SDS011;20564;42.902;25.336;2022-11-25T05:40:34;0.95;;;0.75;;
34296;SDS011;20564;42.902;25.336;2022-11-25T05:43:01;4.40;;;1.63;;
34296;SDS011;20564;42.902;25.336;2022-11-25T05:45:29;2.53;;;1.17;;
34296;SDS011;20564;42.902;25.336;2022-11-25T05:47:56;1.13;;;0.70;;
34296;SDS011;20564;42.902;25.336;2022-11-25T05:50:23;0.22;;;0.22;;
34296;SDS011;20564;42.902;25.336;2022-11-25T05:52:54;0.88;;;0.30;;
34296;SDS011;20564;42.902;25.336;2022-11-25T05:55:21;1.67;;;0.57;;
34296;SDS011;20564;42.902;25.336;2022-11-25T05:57:48;2.07;;;1.07;;
34296;SDS011;20564;42.902;25.336;2022-11-25T06:00:15;2.72;;;1.27;;
34296;SDS011;20564;42.902;25.336;2022-11-25T06:02:49;0.85;;;0.40;;
34296;SDS011;20564;42.902;25.336;2022-11-25T06:05:16;0.95;;;0.68;;
34296;SDS011;20564;42.902;25.336;2022-11-25T06:07:45;0.77;;;0.77;;
34296;SDS011;20564;42.902;25.336;2022-11-25T06:10:12;2.70;;;1.08;;
34296;SDS011;20564;42.902;25.336;2022-11-25T06:12:40;0.40;;;0.40;;
34296;SDS011;20564;42.902;25.336;2022-11-25T06:15:07;1.83;;;1.17;;
34296;SDS011;20564;42.902;25.336;2022-11-25T06:17:34;1.65;;;0.80;;
34296;SDS011;20564;42.902;25.336;2022-11-25T06:20:02;0.77;;;0.60;;
34296;SDS011;20564;42.902;25.336;2022-11-25T06:22:33;0.80;;;0.50;;
34296;SDS011;20564;42.902;25.336;2022-11-25T06:25:00;7.37;;;3.20;;
34296;SDS011;20564;42.902;25.336;2022-11-25T06:27:29;4.00;;;2.15;;
34296;SDS011;20564;42.902;25.336;2022-11-25T06:30:16;3.78;;;1.75;;
34296;SDS011;20564;42.902;25.336;2022-11-25T06:32:44;3.63;;;1.27;;
34296;SDS011;20564;42.902;25.336;2022-11-25T06:35:11;1.45;;;0.77;;
34296;SDS011;20564;42.902;25.336;2022-11-25T06:37:38;2.77;;;1.37;;
34296;SDS011;20564;42.902;25.336;2022-11-25T06:40:06;1.92;;;0.95;;
34296;SDS011;20564;42.902;25.336;2022-11-25T06:42:33;4.20;;;1.73;;
34296;SDS011;20564;42.902;25.336;2022-11-25T06:45:00;1.00;;;0.68;;
34296;SDS011;20564;42.902;25.336;2022-11-25T06:47:28;1.75;;;0.60;;
34296;SDS011;20564;42.902;25.336;2022-11-25T06:49:55;0.30;;;0.30;;
34296;SDS011;20564;42.902;25.336;2022-11-25T06:52:22;1.37;;;1.13;;
34296;SDS011;20564;42.902;25.336;2022-11-25T06:54:49;0.93;;;0.83;;
34296;SDS011;20564;42.902;25.336;2022-11-25T06:57:17;0.98;;;0.65;;
34296;SDS011;20564;42.902;25.336;2022-11-25T06:59:45;1.15;;;0.52;;
34296;SDS011;20564;42.902;25.336;2022-11-25T07:02:12;2.43;;;1.50;;
34296;SDS011;20564;42.902;25.336;2022-11-25T07:07:07;0.55;;;0.50;;
34296;SDS011;20564;42.902;25.336;2022-11-25T07:09:35;1.10;;;0.68;;
34296;SDS011;20564;42.902;25.336;2022-11-25T07:12:03;1.75;;;0.75;;
34296;SDS011;20564;42.902;25.336;2022-11-25T07:14:31;0.75;;;0.55;;
34296;SDS011;20564;42.902;25.336;2022-11-25T07:16:58;1.55;;;0.75;;
34296;SDS011;20564;42.902;25.336;2022-11-25T07:19:25;0.95;;;0.60;;
34296;SDS011;20564;42.902;25.336;2022-11-25T07:21:52;1.40;;;0.50;;
34296;SDS011;20564;42.902;25.336;2022-11-25T07:24:19;0.57;;;0.50;;
34296;SDS011;20564;42.902;25.336;2022-11-25T07:26:46;1.85;;;0.93;;
34296;SDS011;20564;42.902;25.336;2022-11-25T07:29:13;0.88;;;0.40;;
34296;SDS011;20564;42.902;25.336;2022-11-25T07:32:01;0.63;;;0.63;;
34296;SDS011;20564;42.902;25.336;2022-11-25T07:34:35;1.42;;;0.82;;
34296;SDS011;20564;42.902;25.336;2022-11-25T07:37:02;2.03;;;1.02;;
34296;SDS011;20564;42.902;25.336;2022-11-25T07:39:29;3.28;;;1.58;;
34296;SDS011;20564;42.902;25.336;2022-11-25T07:41:56;1.35;;;0.77;;
34296;SDS011;20564;42.902;25.336;2022-11-25T07:44:23;0.30;;;0.30;;
34296;SDS011;20564;42.902;25.336;2022-11-25T07:46:50;1.80;;;1.17;;
34296;SDS011;20564;42.902;25.336;2022-11-25T07:49:18;1.10;;;0.53;;
34296;SDS011;20564;42.902;25.336;2022-11-25T07:51:51;0.95;;;0.77;;
34296;SDS011;20564;42.902;25.336;2022-11-25T07:54:20;0.85;;;0.40;;
34296;SDS011;20564;42.902;25.336;2022-11-25T07:56:48;1.08;;;0.73;;
34296;SDS011;20564;42.902;25.336;2022-11-25T08:01:44;1.13;;;0.85;;
34296;SDS011;20564;42.902;25.336;2022-11-25T08:04:11;1.20;;;0.80;;
34296;SDS011;20564;42.902;25.336;2022-11-25T08:06:46;1.55;;;0.63;;
34296;SDS011;20564;42.902;25.336;2022-11-25T08:09:16;0.52;;;0.50;;
34296;SDS011;20564;42.902;25.336;2022-11-25T08:11:45;1.27;;;0.68;;
34296;SDS011;20564;42.902;25.336;2022-11-25T08:14:14;5.22;;;2.28;;
34296;SDS011;20564;42.902;25.336;2022-11-25T08:16:42;5.88;;;2.78;;
34296;SDS011;20564;42.902;25.336;2022-11-25T08:19:10;1.42;;;1.02;;
34296;SDS011;20564;42.902;25.336;2022-11-25T08:21:39;2.90;;;1.48;;
34296;SDS011;20564;42.902;25.336;2022-11-25T08:24:07;1.75;;;1.23;;
34296;SDS011;20564;42.902;25.336;2022-11-25T08:26:41;1.55;;;0.88;;
34296;SDS011;20564;42.902;25.336;2022-11-25T08:29:09;0.77;;;0.63;;
34296;SDS011;20564;42.902;25.336;2022-11-25T08:31:42;1.17;;;0.50;;
34296;SDS011;20564;42.902;25.336;2022-11-25T08:34:10;1.80;;;1.23;;
34296;SDS011;20564;42.902;25.336;2022-11-25T08:36:44;0.75;;;0.63;;
34296;SDS011;20564;42.902;25.336;2022-11-25T08:39:14;3.92;;;1.30;;
34296;SDS011;20564;42.902;25.336;2022-11-25T08:42:02;2.55;;;1.20;;
34296;SDS011;20564;42.902;25.336;2022-11-25T08:44:30;1.00;;;0.57;;
34296;SDS011;20564;42.902;25.336;2022-11-25T08:46:57;4.97;;;0.98;;
34296;SDS011;20564;42.902;25.336;2022-11-25T08:49:24;1.00;;;0.83;;
34296;SDS011;20564;42.902;25.336;2022-11-25T08:51:52;1.00;;;0.65;;
34296;SDS011;20564;42.902;25.336;2022-11-25T08:54:19;4.07;;;1.55;;
34296;SDS011;20564;42.902;25.336;2022-11-25T08:56:46;1.58;;;0.98;;
34296;SDS011;20564;42.902;25.336;2022-11-25T08:59:13;4.07;;;1.63;;
34296;SDS011;20564;42.902;25.336;2022-11-25T09:01:40;2.45;;;1.08;;
34296;SDS011;20564;42.902;25.336;2022-11-25T09:04:07;1.37;;;0.93;;
34296;SDS011;20564;42.902;25.336;2022-11-25T09:06:34;1.50;;;0.97;;
34296;SDS011;20564;42.902;25.336;2022-11-25T09:09:01;2.45;;;0.52;;
34296;SDS011;20564;42.902;25.336;2022-11-25T09:11:31;2.95;;;1.35;;
34296;SDS011;20564;42.902;25.336;2022-11-25T09:13:58;3.10;;;1.63;;
34296;SDS011;20564;42.902;25.336;2022-11-25T09:16:28;3.97;;;1.30;;
34296;SDS011;20564;42.902;25.336;2022-11-25T09:18:55;1.52;;;0.60;;
34296;SDS011;20564;42.902;25.336;2022-11-25T09:21:22;1.03;;;0.73;;
34296;SDS011;20564;42.902;25.336;2022-11-25T09:26:20;1.50;;;0.77;;
34296;SDS011;20564;42.902;25.336;2022-11-25T09:28:52;1.55;;;1.10;;
34296;SDS011;20564;42.902;25.336;2022-11-25T09:31:20;1.42;;;0.90;;
34296;SDS011;20564;42.902;25.336;2022-11-25T09:33:48;3.75;;;1.42;;
34296;SDS011;20564;42.902;25.336;2022-11-25T09:36:16;2.03;;;1.20;;
34296;SDS011;20564;42.902;25.336;2022-11-25T09:38:44;3.42;;;0.82;;
34296;SDS011;20564;42.902;25.336;2022-11-25T09:44:22;4.13;;;1.17;;
34296;SDS011;20564;42.902;25.336;2022-11-25T09:50:35;3.40;;;1.00;;
34296;SDS011;20564;42.902;25.336;2022-11-25T09:56:02;1.88;;;1.13;;
34296;SDS011;20564;42.902;25.336;2022-11-25T09:58:34;2.75;;;0.88;;
34296;SDS011;20564;42.902;25.336;2022-11-25T10:01:11;1.58;;;1.00;;
34296;SDS011;20564;42.902;25.336;2022-11-25T10:06:19;1.50;;;0.82;;
34296;SDS011;20564;42.902;25.336;2022-11-25T10:09:03;1.25;;;0.80;;
34296;SDS011;20564;42.902;25.336;2022-11-25T10:11:58;4.35;;;1.02;;
34296;SDS011;20564;42.902;25.336;2022-11-25T10:14:37;1.08;;;0.52;;
34296;SDS011;20564;42.902;25.336;2022-11-25T10:20:16;1.27;;;0.70;;
34296;SDS011;20564;42.902;25.336;2022-11-25T10:22:53;0.35;;;0.30;;
34296;SDS011;20564;42.902;25.336;2022-11-25T10:25:33;0.65;;;0.25;;
34296;SDS011;20564;42.902;25.336;2022-11-25T10:33:19;1.73;;;0.45;;
34296;SDS011;20564;42.902;25.336;2022-11-25T10:38:38;3.72;;;1.73;;
34296;SDS011;20564;42.902;25.336;2022-11-25T10:41:15;1.75;;;1.25;;
34296;SDS011;20564;42.902;25.336;2022-11-25T10:43:44;2.33;;;1.42;;
34296;SDS011;20564;42.902;25.336;2022-11-25T10:49:18;8.30;;;2.20;;
34296;SDS011;20564;42.902;25.336;2022-11-25T10:54:26;4.05;;;2.67;;
34296;SDS011;20564;42.902;25.336;2022-11-25T10:56:55;1.83;;;0.95;;
34296;SDS011;20564;42.902;25.336;2022-11-25T10:59:34;0.95;;;0.60;;
34296;SDS011;20564;42.902;25.336;2022-11-25T11:04:59;2.65;;;0.90;;
34296;SDS011;20564;42.902;25.336;2022-11-25T11:07:29;3.15;;;1.05;;
34296;SDS011;20564;42.902;25.336;2022-11-25T11:10:18;2.58;;;1.00;;
34296;SDS011;20564;42.902;25.336;2022-11-25T11:15:32;3.83;;;1.20;;
34296;SDS011;20564;42.902;25.336;2022-11-25T11:21:05;5.55;;;2.10;;
34296;SDS011;20564;42.902;25.336;2022-11-25T11:23:47;2.80;;;1.17;;
34296;SDS011;20564;42.902;25.336;2022-11-25T11:31:37;4.00;;;1.17;;
34296;SDS011;20564;42.902;25.336;2022-11-25T11:51:28;0.85;;;0.68;;
34296;SDS011;20564;42.902;25.336;2022-11-25T11:54:07;2.42;;;0.60;;
34296;SDS011;20564;42.902;25.336;2022-11-25T11:56:52;3.28;;;1.33;;
34296;SDS011;20564;42.902;25.336;2022-11-25T12:10:32;3.80;;;0.95;;
34296;SDS011;20564;42.902;25.336;2022-11-25T12:15:54;2.78;;;1.02;;
34296;SDS011;20564;42.902;25.336;2022-11-25T12:21:27;4.45;;;2.30;;
34296;SDS011;20564;42.902;25.336;2022-11-25T12:24:29;2.53;;;0.85;;
34296;SDS011;20564;42.902;25.336;2022-11-25T12:27:16;2.72;;;1.55;;
34296;SDS011;20564;42.902;25.336;2022-11-25T12:30:04;0.85;;;0.52;;
34296;SDS011;20564;42.902;25.336;2022-11-25T12:41:41;0.82;;;0.50;;
34296;SDS011;20564;42.902;25.336;2022-11-25T12:47:10;0.70;;;0.30;;
34296;SDS011;20564;42.902;25.336;2022-11-25T12:49:43;1.50;;;0.80;;
34296;SDS011;20564;42.902;25.336;2022-11-25T12:55:18;1.65;;;0.75;;
34296;SDS011;20564;42.902;25.336;2022-11-25T12:57:59;0.75;;;0.40;;
34296;SDS011;20564;42.902;25.336;2022-11-25T13:01:06;0.90;;;0.32;;
34296;SDS011;20564;42.902;25.336;2022-11-25T13:17:39;0.47;;;0.30;;
34296;SDS011;20564;42.902;25.336;2022-11-25T13:25:31;2.30;;;0.90;;
34296;SDS011;20564;42.902;25.336;2022-11-25T13:43:55;1.17;;;0.40;;
34296;SDS011;20564;42.902;25.336;2022-11-25T13:46:45;2.38;;;1.55;;
34296;SDS011;20564;42.902;25.336;2022-11-25T13:54:48;0.88;;;0.52;;
34296;SDS011;20564;42.902;25.336;2022-11-25T13:59:52;1.48;;;0.70;;
34296;SDS011;20564;42.902;25.336;2022-11-25T14:05:03;3.15;;;2.05;;
34296;SDS011;20564;42.902;25.336;2022-11-25T14:27:52;2.35;;;1.60;;
34296;SDS011;20564;42.902;25.336;2022-11-25T14:35:20;3.47;;;1.30;;
34296;SDS011;20564;42.902;25.336;2022-11-25T14:38:03;3.95;;;2.08;;
34296;SDS011;20564;42.902;25.336;2022-11-25T14:43:23;6.53;;;3.25;;
34296;SDS011;20564;42.902;25.336;2022-11-25T14:46:16;5.05;;;2.42;;
34296;SDS011;20564;42.902;25.336;2022-11-25T14:48:43;3.97;;;2.10;;
34296;SDS011;20564;42.902;25.336;2022-11-25T14:51:18;3.78;;;1.50;;
34296;SDS011;20564;42.902;25.336;2022-11-25T14:53:57;5.43;;;2.88;;
34296;SDS011;20564;42.902;25.336;2022-11-25T14:56:28;11.18;;;4.40;;
34296;SDS011;20564;42.902;25.336;2022-11-25T14:59:01;8.15;;;4.90;;
34296;SDS011;20564;42.902;25.336;2022-11-25T15:01:37;16.02;;;8.68;;
34296;SDS011;20564;42.902;25.336;2022-11-25T15:04:30;12.90;;;5.68;;
34296;SDS011;20564;42.902;25.336;2022-11-25T15:06:59;8.13;;;3.70;;
34296;SDS011;20564;42.902;25.336;2022-11-25T15:09:36;11.23;;;5.32;;
34296;SDS011;20564;42.902;25.336;2022-11-25T15:12:15;11.43;;;6.43;;
34296;SDS011;20564;42.902;25.336;2022-11-25T15:14:48;6.50;;;3.47;;
34296;SDS011;20564;42.902;25.336;2022-11-25T15:20:03;5.55;;;2.50;;
34296;SDS011;20564;42.902;25.336;2022-11-25T15:22:38;32.72;;;9.18;;
34296;SDS011;20564;42.902;25.336;2022-11-25T15:25:08;8.13;;;2.80;;
34296;SDS011;20564;42.902;25.336;2022-11-25T15:27:43;11.50;;;5.63;;
34296;SDS011;20564;42.902;25.336;2022-11-25T15:30:19;7.72;;;1.55;;
34296;SDS011;20564;42.902;25.336;2022-11-25T15:32:49;13.18;;;3.45;;
34296;SDS011;20564;42.902;25.336;2022-11-25T15:35:18;2.30;;;1.60;;
34296;SDS011;20564;42.902;25.336;2022-11-25T15:37:47;4.50;;;2.17;;
34296;SDS011;20564;42.902;25.336;2022-11-25T15:43:21;6.88;;;2.28;;
34296;SDS011;20564;42.902;25.336;2022-11-25T15:48:53;7.55;;;2.35;;
34296;SDS011;20564;42.902;25.336;2022-11-25T15:52:05;4.07;;;2.45;;
34296;SDS011;20564;42.902;25.336;2022-11-25T15:54:50;2.65;;;1.40;;
34296;SDS011;20564;42.902;25.336;2022-11-25T15:57:21;3.70;;;1.67;;
34296;SDS011;20564;42.902;25.336;2022-11-25T16:02:31;4.40;;;1.70;;
34296;SDS011;20564;42.902;25.336;2022-11-25T16:05:16;4.68;;;2.38;;
34296;SDS011;20564;42.902;25.336;2022-11-25T16:11:16;5.32;;;1.83;;
34296;SDS011;20564;42.902;25.336;2022-11-25T16:13:47;2.03;;;1.35;;
34296;SDS011;20564;42.902;25.336;2022-11-25T16:16:29;6.43;;;2.25;;
34296;SDS011;20564;42.902;25.336;2022-11-25T16:21:29;2.08;;;0.98;;
34296;SDS011;20564;42.902;25.336;2022-11-25T16:24:12;1.58;;;1.27;;
34296;SDS011;20564;42.902;25.336;2022-11-25T16:26:54;3.28;;;1.45;;
34296;SDS011;20564;42.902;25.336;2022-11-25T16:29:35;1.75;;;1.10;;
34296;SDS011;20564;42.902;25.336;2022-11-25T16:32:13;2.67;;;1.85;;
34296;SDS011;20564;42.902;25.336;2022-11-25T16:34:42;1.50;;;0.85;;
34296;SDS011;20564;42.902;25.336;2022-11-25T16:37:10;3.40;;;1.42;;
34296;SDS011;20564;42.902;25.336;2022-11-25T16:39:37;2.25;;;1.48;;
34296;SDS011;20564;42.902;25.336;2022-11-25T16:42:09;1.88;;;1.33;;
34296;SDS011;20564;42.902;25.336;2022-11-25T16:44:44;1.73;;;1.13;;
34296;SDS011;20564;42.902;25.336;2022-11-25T16:47:14;3.75;;;1.50;;
34296;SDS011;20564;42.902;25.336;2022-11-25T16:49:42;3.80;;;1.30;;
34296;SDS011;20564;42.902;25.336;2022-11-25T16:52:09;3.08;;;1.65;;
34296;SDS011;20564;42.902;25.336;2022-11-25T16:54:36;4.82;;;1.98;;
34296;SDS011;20564;42.902;25.336;2022-11-25T16:59:47;3.55;;;1.92;;
34296;SDS011;20564;42.902;25.336;2022-11-25T17:02:31;2.97;;;1.45;;
34296;SDS011;20564;42.902;25.336;2022-11-25T17:07:49;3.17;;;1.95;;
34296;SDS011;20564;42.902;25.336;2022-11-25T17:10:25;5.78;;;1.85;;
34296;SDS011;20564;42.902;25.336;2022-11-25T17:13:06;2.47;;;1.35;;
34296;SDS011;20564;42.902;25.336;2022-11-25T17:15:51;3.65;;;2.13;;
34296;SDS011;20564;42.902;25.336;2022-11-25T17:18:23;2.15;;;1.60;;
34296;SDS011;20564;42.902;25.336;2022-11-25T17:20:52;1.85;;;1.40;;
34296;SDS011;20564;42.902;25.336;2022-11-25T17:23:19;4.10;;;1.40;;
34296;SDS011;20564;42.902;25.336;2022-11-25T17:25:48;4.85;;;1.38;;
34296;SDS011;20564;42.902;25.336;2022-11-25T17:28:17;8.05;;;2.30;;
34296;SDS011;20564;42.902;25.336;2022-11-25T17:30:52;5.93;;;1.17;;
34296;SDS011;20564;42.902;25.336;2022-11-25T17:33:46;3.72;;;1.73;;
34296;SDS011;20564;42.902;25.336;2022-11-25T17:36:22;3.60;;;2.03;;
34296;SDS011;20564;42.902;25.336;2022-11-25T17:38:50;5.78;;;2.20;;
34296;SDS011;20564;42.902;25.336;2022-11-25T17:41:19;2.83;;;1.30;;
34296;SDS011;20564;42.902;25.336;2022-11-25T17:43:52;2.58;;;1.02;;
34296;SDS011;20564;42.902;25.336;2022-11-25T17:46:21;1.65;;;1.05;;
34296;SDS011;20564;42.902;25.336;2022-11-25T17:48:54;2.92;;;1.73;;
34296;SDS011;20564;42.902;25.336;2022-11-25T17:51:21;1.67;;;0.73;;
34296;SDS011;20564;42.902;25.336;2022-11-25T17:53:48;1.52;;;1.13;;
34296;SDS011;20564;42.902;25.336;2022-11-25T17:56:20;2.65;;;1.45;;
34296;SDS011;20564;42.902;25.336;2022-11-25T17:58:51;2.17;;;1.30;;
34296;SDS011;20564;42.902;25.336;2022-11-25T18:01:19;1.13;;;0.82;;
34296;SDS011;20564;42.902;25.336;2022-11-25T18:03:47;1.27;;;0.80;;
34296;SDS011;20564;42.902;25.336;2022-11-25T18:06:17;2.75;;;1.73;;
34296;SDS011;20564;42.902;25.336;2022-11-25T18:08:45;1.98;;;0.77;;
34296;SDS011;20564;42.902;25.336;2022-11-25T18:11:14;8.35;;;2.97;;
34296;SDS011;20564;42.902;25.336;2022-11-25T18:13:59;2.13;;;1.20;;
34296;SDS011;20564;42.902;25.336;2022-11-25T18:16:26;2.78;;;1.55;;
34296;SDS011;20564;42.902;25.336;2022-11-25T18:18:55;9.23;;;3.35;;
34296;SDS011;20564;42.902;25.336;2022-11-25T18:21:23;6.38;;;2.75;;
34296;SDS011;20564;42.902;25.336;2022-11-25T18:23:52;7.53;;;3.28;;
34296;SDS011;20564;42.902;25.336;2022-11-25T18:26:32;5.03;;;1.92;;
34296;SDS011;20564;42.902;25.336;2022-11-25T18:29:26;5.57;;;3.05;;
34296;SDS011;20564;42.902;25.336;2022-11-25T18:31:53;4.40;;;2.45;;
34296;SDS011;20564;42.902;25.336;2022-11-25T18:34:22;4.10;;;2.72;;
34296;SDS011;20564;42.902;25.336;2022-11-25T18:36:50;2.47;;;1.27;;
34296;SDS011;20564;42.902;25.336;2022-11-25T18:39:18;1.80;;;1.60;;
34296;SDS011;20564;42.902;25.336;2022-11-25T18:41:46;7.47;;;3.53;;
34296;SDS011;20564;42.902;25.336;2022-11-25T18:44:20;9.50;;;4.78;;
34296;SDS011;20564;42.902;25.336;2022-11-25T18:46:52;8.85;;;5.03;;